Time;durP1;ratioP1;P1;durP2;ratioP2;P2;SDS_P1;SDS_P2;PMS_P1;PMS_P2;Temp;Humidity;BMP_temperature;BMP_pressure;BME280_temperature;BME280_humidity;BME280_pressure;Samples;Min_cycle;Max_cycle;Signal;HPM_P1;HPM_P2
2024/02/08 00:01:46;;;;;;;18.77;9.07;;;;;;;5.01;100.00;99117.28;4969886;28;20085;-95
2024/02/08 00:04:11;;;;;;;21.92;8.70;;;;;;;5.01;100.00;99119.84;4964700;28;20472;-95
2024/02/08 00:06:37;;;;;;;24.25;11.00;;;;;;;5.01;100.00;99107.06;4976695;28;20031;-94
2024/02/08 00:09:03;;;;;;;17.13;9.80;;;;;;;5.15;100.00;99108.84;4964868;28;20172;-95
2024/02/08 00:11:28;;;;;;;17.55;9.32;;;;;;;5.05;100.00;99105.16;4974779;28;20086;-95
2024/02/08 00:13:54;;;;;;;28.65;9.07;;;;;;;4.98;100.00;99108.97;4974360;28;20425;-96
2024/02/08 00:16:20;;;;;;;22.45;10.05;;;;;;;5.19;100.00;99112.03;4975505;28;20030;-95
2024/02/08 00:18:45;;;;;;;27.48;9.35;;;;;;;5.16;100.00;99120.72;4974747;28;20045;-95
2024/02/08 00:21:12;;;;;;;22.23;10.40;;;;;;;5.09;100.00;99110.00;4975310;28;20062;-94
2024/02/08 00:23:37;;;;;;;22.60;11.82;;;;;;;4.88;100.00;99103.53;4975488;28;20023;-95
2024/02/08 00:26:03;;;;;;;25.23;12.10;;;;;;;4.95;100.00;99094.63;4975394;28;20023;-95
2024/02/08 00:28:28;;;;;;;27.38;10.90;;;;;;;5.04;100.00;99088.97;4975253;28;20042;-95
2024/02/08 00:30:54;;;;;;;28.00;11.85;;;;;;;5.10;100.00;99086.09;4975188;28;20134;-96
2024/02/08 00:33:20;;;;;;;25.67;11.98;;;;;;;4.95;100.00;99081.84;4973655;28;20113;-96
2024/02/08 00:35:45;;;;;;;26.30;12.75;;;;;;;5.03;100.00;99082.22;4974471;28;20023;-94
2024/02/08 00:38:11;;;;;;;29.98;13.15;;;;;;;5.02;100.00;99088.22;4974725;28;20413;-94
2024/02/08 00:40:36;;;;;;;28.05;12.57;;;;;;;5.06;100.00;99091.47;4973997;28;20029;-95
2024/02/08 00:43:06;;;;;;;28.63;14.02;;;;;;;4.89;100.00;99079.63;4975055;28;20030;-96
2024/02/08 00:45:33;;;;;;;29.08;13.35;;;;;;;5.03;100.00;99072.00;4974905;28;20030;-96
2024/02/08 00:47:59;;;;;;;22.33;12.20;;;;;;;5.05;100.00;99072.75;4974819;28;20023;-95
2024/02/08 00:50:25;;;;;;;20.17;13.27;;;;;;;5.07;100.00;99070.94;4974826;28;20029;-95
2024/02/08 00:52:52;;;;;;;27.08;14.82;;;;;;;4.98;100.00;99068.88;4974582;28;20027;-95
2024/02/08 00:55:18;;;;;;;27.73;15.00;;;;;;;4.96;100.00;99063.03;4974682;28;20023;-96
2024/02/08 00:57:43;;;;;;;22.40;14.68;;;;;;;5.05;100.00;99062.50;4974867;28;20027;-96
2024/02/08 01:00:10;;;;;;;24.00;13.90;;;;;;;5.01;100.00;99055.91;4974806;28;20117;-95
2024/02/08 01:02:35;;;;;;;29.10;14.05;;;;;;;5.17;100.00;99050.75;4974879;28;20023;-96
2024/02/08 01:05:01;;;;;;;25.52;15.13;;;;;;;4.91;100.00;99049.69;4974272;28;20023;-95
2024/02/08 01:07:27;;;;;;;30.48;15.10;;;;;;;4.88;100.00;99049.84;4974683;28;20460;-95
2024/02/08 01:09:52;;;;;;;40.83;17.17;;;;;;;4.83;100.00;99052.66;4974685;28;20118;-96
2024/02/08 01:12:19;;;;;;;31.35;17.33;;;;;;;4.86;100.00;99041.44;4975622;28;20038;-94
2024/02/08 01:14:47;;;;;;;32.00;16.38;;;;;;;5.06;100.00;99038.56;4974177;28;20528;-96
2024/02/08 01:17:14;;;;;;;31.60;16.73;;;;;;;5.05;100.00;99036.94;4974356;28;20313;-95
2024/02/08 01:19:40;;;;;;;24.48;15.27;;;;;;;5.09;100.00;99028.16;4974437;28;20027;-96
2024/02/08 01:22:06;;;;;;;26.67;15.82;;;;;;;5.11;100.00;99018.66;4975734;28;20023;-95
2024/02/08 01:24:31;;;;;;;36.90;17.58;;;;;;;5.08;100.00;99013.75;4974161;28;20027;-94
2024/02/08 01:26:57;;;;;;;30.83;17.42;;;;;;;5.06;100.00;99001.97;4974119;28;20367;-96
2024/02/08 01:29:24;;;;;;;32.17;16.95;;;;;;;5.15;100.00;98994.56;4974110;28;20049;-95
2024/02/08 01:31:51;;;;;;;34.97;18.52;;;;;;;4.93;100.00;98981.38;4973880;28;20023;-95
2024/02/08 01:34:17;;;;;;;30.23;17.25;;;;;;;5.02;100.00;98969.78;4973852;28;20027;-93
2024/02/08 01:36:42;;;;;;;38.55;21.15;;;;;;;4.84;100.00;98969.13;4973740;28;20480;-94
2024/02/08 01:39:22;;;;;;;41.33;20.52;;;;;;;4.85;100.00;98961.38;4973998;28;20109;-94
2024/02/08 01:41:53;;;;;;;40.03;19.23;;;;;;;4.89;100.00;98949.22;4973646;28;20019;-95
2024/02/08 01:44:21;;;;;;;47.55;21.52;;;;;;;4.76;100.00;98938.09;4973700;28;20065;-95
2024/02/08 01:46:48;;;;;;;38.10;19.95;;;;;;;4.92;100.00;98941.38;4973380;28;20575;-95
2024/02/08 01:49:26;;;;;;;42.85;20.00;;;;;;;4.92;100.00;98936.25;4973225;28;20022;-95
2024/02/08 01:52:03;;;;;;;45.03;20.02;;;;;;;4.99;100.00;98929.88;4973904;28;20049;-95
2024/02/08 01:54:32;;;;;;;37.25;18.98;;;;;;;4.96;100.00;98909.63;4973667;28;20034;-95
2024/02/08 01:56:58;;;;;;;35.65;18.92;;;;;;;4.91;100.00;98911.63;4973645;28;20030;-94
2024/02/08 01:59:25;;;;;;;36.20;19.67;;;;;;;4.84;100.00;98900.13;4974565;28;20031;-94
2024/02/08 02:01:51;;;;;;;46.30;23.83;;;;;;;4.83;100.00;98898.44;4974812;28;20082;-94
2024/02/08 02:04:19;;;;;;;32.33;18.77;;;;;;;4.90;100.00;98899.75;4973564;28;20027;-94
2024/02/08 02:06:46;;;;;;;33.53;19.00;;;;;;;4.99;100.00;98903.50;4973184;28;20034;-95
2024/02/08 02:09:23;;;;;;;40.65;20.48;;;;;;;4.91;100.00;98886.06;4973230;28;20585;-96
2024/02/08 02:12:01;;;;;;;31.80;19.23;;;;;;;4.78;100.00;98885.13;4973053;28;20018;-95
2024/02/08 02:14:29;;;;;;;37.63;19.80;;;;;;;4.91;100.00;98875.84;4973138;28;20069;-94
2024/02/08 02:17:12;;;;;;;33.63;18.45;;;;;;;4.78;100.00;98874.91;4972983;28;20528;-96
2024/02/08 02:19:39;;;;;;;37.47;20.17;;;;;;;4.81;100.00;98864.50;4973084;28;20565;-95
2024/02/08 02:22:07;;;;;;;40.33;19.98;;;;;;;4.86;100.00;98860.75;4972973;28;20022;-96
2024/02/08 02:24:36;;;;;;;42.72;19.27;;;;;;;4.92;100.00;98862.13;4973041;28;20023;-95
2024/02/08 02:27:04;;;;;;;32.40;19.42;;;;;;;4.94;100.00;98856.00;4972951;28;20484;-95
2024/02/08 02:29:30;;;;;;;35.90;20.75;;;;;;;4.86;100.00;98847.16;4973069;28;20109;-94
2024/02/08 02:31:56;;;;;;;37.60;19.90;;;;;;;4.87;100.00;98843.69;4972932;28;20027;-95
2024/02/08 02:34:25;;;;;;;37.40;19.20;;;;;;;4.76;100.00;98836.66;4972810;28;20031;-96
2024/02/08 02:36:53;;;;;;;37.42;19.73;;;;;;;4.92;100.00;98839.13;4972872;28;20035;-94
2024/02/08 02:39:25;;;;;;;27.75;16.90;;;;;;;4.98;100.00;98828.53;4972845;28;20023;-94
2024/02/08 02:41:54;;;;;;;29.90;16.98;;;;;;;5.01;100.00;98825.78;4972702;28;20033;-94
2024/02/08 02:44:20;;;;;;;27.95;16.92;;;;;;;4.93;100.00;98821.13;4972542;28;20589;-94
2024/02/08 02:46:46;;;;;;;29.73;17.40;;;;;;;4.88;100.00;98804.44;4972567;28;20481;-94
2024/02/08 02:49:11;;;;;;;25.50;15.77;;;;;;;5.06;100.00;98807.63;4973861;28;20078;-94
2024/02/08 02:51:37;;;;;;;28.23;16.40;;;;;;;4.89;100.00;98800.97;4972500;28;20545;-95
2024/02/08 02:54:02;;;;;;;32.33;16.88;;;;;;;4.98;100.00;98792.75;4972549;28;20026;-94
2024/02/08 02:56:28;;;;;;;25.08;14.80;;;;;;;4.90;100.00;98779.59;4972255;28;20070;-94
2024/02/08 02:58:57;;;;;;;24.27;14.38;;;;;;;4.90;100.00;98771.91;4973499;28;20031;-93
2024/02/08 03:01:23;;;;;;;25.05;15.18;;;;;;;4.90;100.00;98771.91;4975097;28;20030;-94
2024/02/08 03:03:48;;;;;;;29.85;15.57;;;;;;;4.86;100.00;98771.28;4976354;28;20023;-95
2024/02/08 03:06:14;;;;;;;27.60;13.82;;;;;;;4.89;100.00;98766.00;4977720;28;20481;-93
2024/02/08 03:08:49;;;;;;;27.13;14.88;;;;;;;4.81;100.00;98752.88;4977427;28;20551;-94
2024/02/08 03:11:15;;;;;;;26.83;14.00;;;;;;;4.83;100.00;98745.09;4976198;28;20022;-93
2024/02/08 03:13:42;;;;;;;22.58;12.65;;;;;;;4.92;100.00;98734.31;4976020;28;20073;-93
2024/02/08 03:16:16;;;;;;;22.23;11.82;;;;;;;5.07;100.00;98735.94;4976998;28;20082;-93
2024/02/08 03:18:43;;;;;;;23.77;11.95;;;;;;;4.99;100.00;98717.66;4975632;28;20027;-93
2024/02/08 03:21:17;;;;;;;18.92;10.48;;;;;;;4.92;100.00;98719.78;4975602;28;20030;-92
2024/02/08 03:23:46;;;;;;;18.27;10.18;;;;;;;4.87;100.00;98710.75;4975663;28;20085;-92
2024/02/08 03:26:13;;;;;;;15.75;9.82;;;;;;;4.95;100.00;98711.13;4976662;28;20031;-93
2024/02/08 03:28:39;;;;;;;18.73;10.60;;;;;;;4.91;100.00;98692.59;4976610;28;20031;-92
2024/02/08 03:31:09;;;;;;;17.55;10.07;;;;;;;4.95;100.00;98690.69;4976786;28;20026;-93
2024/02/08 03:33:35;;;;;;;15.68;8.90;;;;;;;4.84;100.00;98677.72;4976723;28;20469;-94
2024/02/08 03:36:06;;;;;;;14.88;8.15;;;;;;;5.00;100.00;98665.63;4976756;28;20409;-94
2024/02/08 03:38:33;;;;;;;14.40;8.13;;;;;;;4.94;100.00;98660.91;4976799;28;20031;-91
2024/02/08 03:40:58;;;;;;;16.08;7.38;;;;;;;5.00;100.00;98664.78;4976584;28;20517;-92
2024/02/08 03:43:26;;;;;;;9.25;6.00;;;;;;;4.94;100.00;98653.22;4975311;28;20034;-92
2024/02/08 03:45:55;;;;;;;13.25;6.80;;;;;;;4.99;100.00;98648.63;4975123;28;20438;-92
2024/02/08 03:48:21;;;;;;;13.95;5.97;;;;;;;4.94;100.00;98643.81;4976228;28;20381;-91
2024/02/08 03:50:50;;;;;;;9.95;5.53;;;;;;;5.01;100.00;98644.25;4976227;28;20050;-91
2024/02/08 03:53:17;;;;;;;9.10;4.72;;;;;;;4.92;100.00;98630.31;4974999;28;20436;-90
2024/02/08 03:55:47;;;;;;;7.97;4.93;;;;;;;5.11;100.00;98622.28;4976013;28;20110;-91
2024/02/08 03:58:14;;;;;;;7.03;4.57;;;;;;;5.07;100.00;98613.19;4975828;28;20424;-92
2024/02/08 04:00:43;;;;;;;21.13;4.68;;;;;;;4.95;100.00;98611.44;4976323;28;20038;-94
2024/02/08 04:03:33;;;;;;;8.90;4.72;;;;;;;5.05;100.00;98593.75;4976671;28;20027;-93
2024/02/08 04:05:59;;;;;;;7.43;4.15;;;;;;;4.87;100.00;98595.72;4975033;28;20027;-94
2024/02/08 04:09:06;;;;;;;5.90;3.65;;;;;;;5.05;100.00;98580.97;4975316;28;20033;-94
2024/02/08 04:55:15;;;;;;;10.50;5.13;;;;;;;4.81;100.00;98501.56;4975888;28;20093;-95
2024/02/08 04:57:41;;;;;;;6.82;4.72;;;;;;;4.77;100.00;98511.16;4975060;28;20027;-93
2024/02/08 05:00:12;;;;;;;7.88;4.60;;;;;;;4.81;100.00;98507.50;4973903;28;20022;-92
2024/02/08 05:02:37;;;;;;;;;;;;;;;4.78;100.00;98494.09;4975639;28;20023;-91
2024/02/08 05:05:07;;;;;;;7.30;4.55;;;;;;;4.71;100.00;98489.38;4974835;28;19914;-91
2024/02/08 05:07:32;;;;;;;5.45;4.13;;;;;;;4.68;100.00;98475.97;4974730;28;20073;-91
2024/02/08 05:09:58;;;;;;;4.85;3.72;;;;;;;4.74;100.00;98479.88;4974738;28;20026;-91
2024/02/08 05:12:24;;;;;;;9.60;4.93;;;;;;;4.84;100.00;98470.69;4974861;28;20388;-92
2024/02/08 05:14:49;;;;;;;5.82;4.80;;;;;;;4.75;100.00;98466.97;4974770;28;20019;-92
2024/02/08 05:17:15;;;;;;;7.50;5.10;;;;;;;4.72;100.00;98462.91;4974610;28;20106;-92
2024/02/08 05:19:43;;;;;;;8.93;4.88;;;;;;;4.79;100.00;98458.22;4973389;28;20035;-93
2024/02/08 05:22:11;;;;;;;14.65;4.80;;;;;;;4.80;100.00;98448.78;4973617;28;20031;-94
2024/02/08 05:24:37;;;;;;;6.80;4.65;;;;;;;4.70;100.00;98444.28;4973299;28;20030;-94
2024/02/08 05:27:02;;;;;;;7.25;5.00;;;;;;;4.68;100.00;98456.38;4974717;28;20491;-94
2024/02/08 05:29:28;;;;;;;6.63;4.38;;;;;;;4.75;100.00;98444.00;4973869;28;20035;-95
2024/02/08 05:31:54;;;;;;;5.57;4.03;;;;;;;4.76;100.00;98443.09;4974318;28;20051;-95
2024/02/08 05:34:21;;;;;;;5.15;3.78;;;;;;;4.77;100.00;98429.38;4973887;28;20603;-94
2024/02/08 05:36:48;;;;;;;12.63;4.03;;;;;;;4.73;100.00;98417.75;4973735;28;20027;-96
2024/02/08 05:39:24;;;;;;;5.93;3.20;;;;;;;4.75;100.00;98405.66;4974968;28;20034;-95
2024/02/08 05:41:54;;;;;;;4.60;3.60;;;;;;;4.72;100.00;98400.75;4973369;28;20056;-94
2024/02/08 05:44:20;;;;;;;9.48;2.67;;;;;;;4.75;100.00;98389.50;4973379;28;20113;-93
2024/02/08 05:46:47;;;;;;;8.82;3.28;;;;;;;4.76;100.00;98379.19;4974463;28;20067;-93
2024/02/08 05:49:13;;;;;;;3.92;2.75;;;;;;;4.67;100.00;98372.13;4974336;28;20109;-93
2024/02/08 05:51:51;;;;;;;5.65;2.60;;;;;;;4.66;100.00;98358.53;4974096;28;20057;-94
2024/02/08 05:54:20;;;;;;;2.92;2.20;;;;;;;4.71;100.00;98346.28;4974041;28;20027;-93
2024/02/08 05:56:46;;;;;;;5.00;2.63;;;;;;;4.69;100.00;98350.66;4973948;28;20540;-94
2024/02/08 05:59:15;;;;;;;4.40;2.65;;;;;;;4.67;100.00;98339.72;4972740;28;20030;-93
2024/02/08 06:01:54;;;;;;;3.72;2.85;;;;;;;4.67;100.00;98336.34;4974059;28;20034;-94
2024/02/08 06:04:24;;;;;;;3.60;3.15;;;;;;;4.68;100.00;98333.72;4974077;28;20027;-93
2024/02/08 06:06:58;;;;;;;4.03;2.78;;;;;;;4.80;100.00;98326.13;4973672;28;20059;-93
2024/02/08 06:09:47;;;;;;;4.30;3.10;;;;;;;4.73;100.00;98320.63;4972525;28;20027;-93
2024/02/08 06:12:28;;;;;;;3.45;3.03;;;;;;;4.77;100.00;98329.72;4972590;28;20042;-93
2024/02/08 06:14:58;;;;;;;3.40;2.97;;;;;;;4.72;100.00;98324.09;4973653;28;20027;-93
2024/02/08 06:17:31;;;;;;;3.42;2.60;;;;;;;4.85;100.00;98308.72;4973562;28;20027;-92
2024/02/08 06:20:00;;;;;;;4.70;3.05;;;;;;;4.76;100.00;98309.38;4973811;28;20027;-94
2024/02/08 06:22:25;;;;;;;3.42;2.58;;;;;;;4.82;100.00;98325.09;4973905;28;20030;-93
2024/02/08 06:25:08;;;;;;;7.45;2.97;;;;;;;4.79;100.00;98309.97;4973441;28;20030;-93
2024/02/08 06:27:36;;;;;;;6.95;3.00;;;;;;;4.90;100.00;98296.47;4973351;28;20473;-92
2024/02/08 06:30:08;;;;;;;6.05;2.90;;;;;;;4.79;100.00;98291.28;4972359;28;20035;-92
2024/02/08 06:35:07;;;;;;;3.67;2.30;;;;;;;4.78;100.00;98272.59;4973255;28;20070;-92
2024/02/08 06:37:46;;;;;;;3.63;2.15;;;;;;;4.84;100.00;98268.78;4971829;28;20033;-93
2024/02/08 06:40:21;;;;;;;2.40;2.20;;;;;;;4.86;100.00;98264.38;4971916;28;20031;-92
2024/02/08 07:37:25;;;;;;;6.22;2.30;;;;;;;4.98;100.00;98088.91;4972482;28;20134;-92
2024/02/08 07:39:54;;;;;;;5.65;2.30;;;;;;;5.06;100.00;98072.06;4972656;28;20536;-93
2024/02/08 07:42:29;;;;;;;3.55;1.98;;;;;;;5.07;100.00;98048.13;4971474;28;20034;-92
2024/02/08 07:45:04;;;;;;;2.30;1.90;;;;;;;4.98;100.00;98053.91;4972838;28;20138;-92
2024/02/08 07:47:33;;;;;;;2.38;2.05;;;;;;;5.03;100.00;98041.59;4975359;28;20023;-91
2024/02/08 07:50:04;;;;;;;3.10;1.73;;;;;;;4.97;100.00;98039.47;4976240;28;20070;-91
2024/02/08 07:52:55;;;;;;;2.63;2.07;;;;;;;4.82;100.00;98033.75;4976061;28;20070;-92
2024/02/08 07:55:46;;;;;;;6.90;2.55;;;;;;;4.79;100.00;98039.09;4976126;28;20042;-91
2024/02/08 07:58:09;;;;;;;8.30;2.20;;;;;;;4.81;100.00;98042.34;4975916;28;20432;-91
2024/02/08 08:03:07;;;;;;;3.00;1.85;;;;;;;4.93;100.00;98022.75;4977052;28;20102;-95
2024/02/08 08:05:33;;;;;;;1.95;1.65;;;;;;;5.01;100.00;98023.00;4975405;28;20110;-93
2024/02/08 08:08:01;;;;;;;2.95;1.65;;;;;;;5.18;100.00;98018.41;4974878;28;20117;-94
2024/02/08 08:10:33;;;;;;;3.03;2.25;;;;;;;5.15;100.00;98012.59;4976780;28;20031;-94
2024/02/08 08:13:06;;;;;;;;;;;;;;;5.23;100.00;97996.66;4975346;28;20496;-94
2024/02/08 08:15:49;;;;;;;32.85;2.75;;;;;;;5.22;100.00;97983.97;4974805;28;19914;-94
2024/02/08 08:18:23;;;;;;;15.35;1.80;;;;;;;5.18;100.00;97985.16;4974435;28;20043;-92
2024/02/08 08:20:58;;;;;;;1.80;1.55;;;;;;;5.15;100.00;97984.44;4973394;28;20054;-93
2024/02/08 08:23:26;;;;;;;2.38;1.48;;;;;;;5.17;100.00;97960.50;4975555;28;20033;-92
2024/02/08 08:26:23;;;;;;;1.27;1.17;;;;;;;5.28;100.00;97956.22;4974796;28;20034;-90
2024/02/08 08:28:52;;;;;;;1.60;1.50;;;;;;;5.18;100.00;97950.16;4955679;28;20032;-92
2024/02/08 08:31:38;;;;;;;1.65;1.20;;;;;;;5.35;100.00;97941.22;4969430;28;20126;-94
2024/02/08 08:36:58;;;;;;;10.05;1.20;;;;;;;5.45;100.00;97957.50;4966525;28;20171;-92
2024/02/08 08:39:46;;;;;;;0.90;0.80;;;;;;;5.46;100.00;97928.44;4954658;29;20027;-93
2024/02/08 08:42:23;;;;;;;3.33;1.40;;;;;;;5.53;100.00;97937.25;4958323;28;20034;-89
2024/02/08 08:44:51;;;;;;;2.88;1.00;;;;;;;5.52;100.00;97930.50;4956750;28;20031;-91
2024/02/08 08:47:17;;;;;;;2.45;1.10;;;;;;;5.58;100.00;97931.78;4964460;28;20027;-90
2024/02/08 08:49:44;;;;;;;1.48;0.73;;;;;;;5.60;100.00;97916.31;4971274;28;20563;-93
2024/02/08 08:52:10;;;;;;;1.67;0.80;;;;;;;5.63;100.00;97921.19;4973345;28;20041;-92
2024/02/08 08:54:36;;;;;;;0.70;0.70;;;;;;;5.63;100.00;97903.28;4974894;28;20035;-92
2024/02/08 08:57:12;;;;;;;1.42;0.88;;;;;;;5.74;100.00;97910.94;4974830;28;20023;-92
2024/02/08 08:59:42;;;;;;;1.55;1.00;;;;;;;5.92;100.00;97890.75;4974762;28;20090;-92
2024/02/08 09:02:09;;;;;;;0.80;0.80;;;;;;;5.97;100.00;97894.63;4975077;28;20031;-91
2024/02/08 09:04:35;;;;;;;0.52;0.52;;;;;;;5.95;100.00;97883.69;4974093;28;20026;-91
2024/02/08 09:07:13;;;;;;;1.77;0.60;;;;;;;6.12;100.00;97891.75;4974570;28;20081;-91
2024/02/08 09:09:54;;;;;;;0.85;0.40;;;;;;;6.21;100.00;97886.72;4976497;28;20030;-92
2024/02/08 09:13:21;;;;;;;0.40;0.40;;;;;;;6.23;100.00;97868.66;4975501;28;20030;-91
2024/02/08 09:15:26;;;;;;;0.50;0.50;;;;;;;6.26;100.00;97862.47;4970113;28;20489;-90
2024/02/08 09:17:52;;;;;;;18.45;1.50;;;;;;;6.27;100.00;97869.22;4974493;28;20031;-91
2024/02/08 09:20:23;;;;;;;6.28;0.82;;;;;;;6.26;100.00;97862.47;4973747;28;20114;-91
2024/02/08 09:22:52;;;;;;;4.30;1.00;;;;;;;6.34;100.00;97860.94;4973243;28;20162;-91
2024/02/08 09:25:22;;;;;;;1.65;0.70;;;;;;;6.37;100.00;97860.69;4974389;28;20022;-91
2024/02/08 09:27:53;;;;;;;0.60;0.60;;;;;;;6.46;100.00;97853.97;4974402;28;20050;-91
2024/02/08 09:30:37;;;;;;;1.45;0.55;;;;;;;6.47;100.00;97853.06;4974425;28;20038;-92
2024/02/08 09:33:13;;;;;;;0.52;0.50;;;;;;;6.51;100.00;97856.16;4974170;28;20114;-91
2024/02/08 09:35:41;;;;;;;0.57;0.57;;;;;;;6.56;100.00;97854.03;4973653;28;20035;-92
2024/02/08 09:38:07;;;;;;;1.00;0.60;;;;;;;6.58;100.00;97841.91;4974038;28;20027;-92
2024/02/08 09:40:45;;;;;;;0.63;0.50;;;;;;;6.73;100.00;97842.38;4972924;28;20023;-92
2024/02/08 09:43:16;;;;;;;0.70;0.45;;;;;;;6.68;100.00;97832.50;4974140;28;20030;-91
2024/02/08 09:45:44;;;;;;;0.50;0.50;;;;;;;6.76;100.00;97829.34;4974078;28;20588;-92
2024/02/08 09:48:15;;;;;;;1.08;0.80;;;;;;;6.79;100.00;97824.75;4972637;28;20635;-92
2024/02/08 09:50:50;;;;;;;0.60;0.60;;;;;;;6.83;100.00;97818.44;4973622;28;20038;-92
2024/02/08 09:53:30;;;;;;;0.88;0.73;;;;;;;6.93;100.00;97817.66;4974021;28;20034;-92
2024/02/08 09:56:08;;;;;;;1.23;1.08;;;;;;;7.01;100.00;97828.06;4974054;28;20022;-92
2024/02/08 09:58:35;;;;;;;4.97;2.08;;;;;;;6.91;100.00;97817.78;4973425;28;20033;-92
2024/02/08 10:01:01;;;;;;;1.63;0.98;;;;;;;6.77;100.00;97813.81;4973844;28;20396;-92
2024/02/08 10:03:36;;;;;;;1.33;0.90;;;;;;;6.84;100.00;97803.84;4971940;28;20034;-92
2024/02/08 10:08:54;;;;;;;2.47;1.67;;;;;;;6.93;100.00;97799.72;4974588;28;20038;-92
2024/02/08 10:11:24;;;;;;;5.22;3.30;;;;;;;7.00;100.00;97783.69;4972722;28;20019;-91
2024/02/08 10:13:56;;;;;;;6.88;3.20;;;;;;;7.08;100.00;97783.00;4972391;28;20496;-93
2024/02/08 10:16:42;;;;;;;2.83;2.63;;;;;;;7.13;100.00;97782.63;4973224;28;20027;-92
2024/02/08 10:22:00;;;;;;;2.10;1.90;;;;;;;7.27;100.00;97783.06;4973404;28;20404;-93
2024/02/08 10:24:44;;;;;;;2.55;1.95;;;;;;;7.29;100.00;97770.91;4973375;28;20031;-92
2024/02/08 10:27:19;;;;;;;2.33;2.13;;;;;;;7.39;100.00;97764.97;4973292;28;20061;-92
2024/02/08 10:29:52;;;;;;;4.68;3.03;;;;;;;7.48;100.00;97761.59;4973333;28;20110;-93
2024/02/08 10:32:18;;;;;;;1.95;1.67;;;;;;;7.54;100.00;97761.06;4973372;28;20477;-92
2024/02/08 10:34:45;;;;;;;1.90;1.52;;;;;;;7.62;100.00;97750.13;4971528;28;20030;-91
2024/02/08 10:37:46;;;;;;;3.08;1.85;;;;;;;7.67;100.00;97743.63;4973403;28;20745;-91
2024/02/08 10:40:28;;;;;;;2.75;2.15;;;;;;;7.75;100.00;97739.56;4972950;28;20030;-92
2024/02/08 10:42:53;;;;;;;3.80;2.30;;;;;;;7.84;100.00;97741.31;4975194;28;20106;-92
2024/02/08 10:45:20;;;;;;;3.40;2.42;;;;;;;7.87;100.00;97729.00;4975783;28;20105;-93
2024/02/08 10:47:48;;;;;;;3.25;2.08;;;;;;;7.95;100.00;97741.19;4971967;28;20500;-92
2024/02/08 10:50:27;;;;;;;2.08;1.75;;;;;;;7.97;100.00;97738.47;4972761;28;20022;-94
2024/02/08 10:53:00;;;;;;;5.30;3.42;;;;;;;7.98;100.00;97746.03;4972118;28;20023;-93
2024/02/08 10:55:39;;;;;;;5.03;2.65;;;;;;;7.96;100.00;97732.50;4972171;28;20019;-93
2024/02/08 11:03:33;;;;;;;5.90;2.75;;;;;;;8.10;100.00;97744.94;4972891;28;20019;-93
2024/02/08 11:06:00;;;;;;;2.88;2.33;;;;;;;8.14;100.00;97740.31;4971406;28;20022;-90
2024/02/08 11:08:33;;;;;;;3.80;2.95;;;;;;;8.21;100.00;97741.38;4972039;28;20589;-91
2024/02/08 11:11:09;;;;;;;6.70;3.28;;;;;;;8.21;100.00;97740.56;4972321;28;20073;-90
2024/02/08 11:13:38;;;;;;;6.05;3.40;;;;;;;8.29;100.00;97748.38;4971643;28;20073;-91
2024/02/08 11:16:20;;;;;;;7.70;3.38;;;;;;;8.40;100.00;97750.81;4972803;28;20019;-94
2024/02/08 11:18:52;;;;;;;7.18;3.30;;;;;;;8.50;100.00;97746.44;4972349;28;20552;-94
2024/02/08 11:21:42;;;;;;;;;;;;;;;8.63;100.00;97742.75;4973379;28;20559;-93
2024/02/08 11:24:08;;;;;;;7.40;2.70;;;;;;;8.69;100.00;97739.63;4957224;28;19929;-91
2024/02/08 11:26:34;;;;;;;4.70;3.15;;;;;;;8.83;100.00;97735.75;4957287;28;20031;-90
2024/02/08 11:29:18;;;;;;;16.60;4.47;;;;;;;8.91;100.00;97739.22;4957476;28;20078;-92
2024/02/08 11:31:46;;;;;;;6.80;3.38;;;;;;;8.97;100.00;97733.53;4972620;28;20480;-90
2024/02/08 11:34:15;;;;;;;6.10;3.63;;;;;;;9.07;100.00;97727.50;4974156;28;20035;-91
2024/02/08 11:36:52;;;;;;;5.93;4.35;;;;;;;9.23;100.00;97726.84;4976233;28;20074;-91
2024/02/08 11:39:33;;;;;;;6.47;3.47;;;;;;;9.38;100.00;97725.38;4975231;28;20027;-91
2024/02/08 11:42:00;;;;;;;11.40;3.78;;;;;;;9.59;100.00;97723.31;4976676;28;20030;-92
2024/02/08 11:44:35;;;;;;;14.38;5.15;;;;;;;9.74;100.00;97726.16;4974962;28;20104;-91
2024/02/08 11:47:17;;;;;;;7.07;4.07;;;;;;;9.94;100.00;97710.53;4976021;28;20030;-92
2024/02/08 11:49:52;;;;;;;;;;;;;;;10.07;100.00;97716.06;4975260;28;20034;-92
2024/02/08 11:52:19;;;;;;;8.30;4.15;;;;;;;10.17;100.00;97709.06;4975896;28;20016;-92
2024/02/08 11:54:57;;;;;;;11.35;3.15;;;;;;;10.28;100.00;97698.50;4974801;28;20035;-92
2024/02/08 11:57:23;;;;;;;4.88;2.55;;;;;;;10.38;100.00;97698.41;4976007;28;20461;-92
2024/02/08 11:59:49;;;;;;;8.02;2.05;;;;;;;10.48;100.00;97687.97;4976069;28;20110;-92
2024/02/08 12:02:19;;;;;;;5.30;1.83;;;;;;;10.54;100.00;97681.41;4977442;28;20053;-92
2024/02/08 12:04:48;;;;;;;3.55;2.15;;;;;;;10.66;100.00;97685.31;4965161;28;20492;-92
2024/02/08 12:07:20;;;;;;;3.50;1.40;;;;;;;10.75;100.00;97674.03;4956265;28;20027;-91
2024/02/08 12:09:55;;;;;;;;;;;;;;;10.85;100.00;97679.88;4968091;28;20038;-90
2024/02/08 12:12:25;;;;;;;6.32;1.60;;;;;;;10.95;100.00;97666.00;4975574;28;19917;-94
2024/02/08 12:14:54;;;;;;;2.40;0.98;;;;;;;11.12;100.00;97675.41;4975849;28;20035;-91
2024/02/08 12:17:22;;;;;;;5.78;1.40;;;;;;;11.25;100.00;97664.63;4978097;28;20473;-92
2024/02/08 12:19:47;;;;;;;11.93;1.77;;;;;;;11.40;100.00;97644.13;4975108;28;20049;-92
2024/02/08 12:22:14;;;;;;;0.88;0.70;;;;;;;11.66;100.00;97646.53;4960965;28;20027;-93
2024/02/08 12:24:40;;;;;;;5.47;1.00;;;;;;;11.62;100.00;97650.41;4954965;29;20039;-92
2024/02/08 12:27:12;;;;;;;4.25;1.52;;;;;;;11.72;100.00;97648.44;4969205;28;20093;-92
2024/02/08 12:29:48;;;;;;;2.95;0.60;;;;;;;11.78;100.00;97635.69;4975313;28;20488;-92
2024/02/08 12:32:17;;;;;;;6.03;1.80;;;;;;;11.81;100.00;97634.53;4976336;28;20487;-92
2024/02/08 12:34:45;;;;;;;4.97;0.95;;;;;;;11.82;100.00;97636.16;4974812;28;20082;-93
2024/02/08 12:37:12;;;;;;;1.95;0.70;;;;;;;11.97;100.00;97631.97;4975058;28;20030;-91
2024/02/08 12:39:44;;;;;;;2.05;0.82;;;;;;;11.98;100.00;97623.22;4975439;28;20499;-94
2024/02/08 12:42:13;;;;;;;2.95;0.90;;;;;;;12.08;100.00;97617.06;4974780;28;20062;-92
2024/02/08 12:44:39;;;;;;;3.00;0.80;;;;;;;12.11;100.00;97617.53;4972516;28;20035;-96
2024/02/08 12:47:06;;;;;;;7.07;1.10;;;;;;;12.18;100.00;97625.41;4962528;28;20133;-92
2024/02/08 12:49:33;;;;;;;5.07;0.88;;;;;;;12.22;100.00;97629.28;4968310;28;20031;-94
2024/02/08 12:52:09;;;;;;;5.10;0.88;;;;;;;12.06;100.00;97621.59;4942155;28;20030;-93
2024/02/08 12:54:36;;;;;;;3.22;0.90;;;;;;;11.87;100.00;97628.72;4958381;28;20031;-92
2024/02/08 12:57:12;;;;;;;3.22;0.65;;;;;;;11.87;100.00;97618.41;4959385;29;20035;-92
2024/02/08 12:59:40;;;;;;;4.82;1.10;;;;;;;11.90;100.00;97627.59;4954265;28;20027;-91
2024/02/08 13:02:17;;;;;;;1.75;0.60;;;;;;;11.85;100.00;97620.34;4955015;28;20470;-91
2024/02/08 13:04:48;;;;;;;2.00;0.63;;;;;;;11.84;100.00;97613.53;4958152;28;20480;-92
2024/02/08 13:07:18;;;;;;;4.60;0.85;;;;;;;11.82;100.00;97615.47;4955282;28;20481;-91
2024/02/08 13:09:44;;;;;;;4.28;1.40;;;;;;;11.73;100.00;97601.78;4965904;28;20114;-93
2024/02/08 13:12:20;;;;;;;1.92;0.45;;;;;;;11.70;100.00;97603.88;4974544;28;20054;-91
2024/02/08 13:14:48;;;;;;;1.23;0.60;;;;;;;11.70;100.00;97603.88;4975245;28;20023;-94
2024/02/08 13:17:21;;;;;;;2.22;0.88;;;;;;;11.70;100.00;97603.88;4973836;28;20033;-91
2024/02/08 13:19:47;;;;;;;2.92;0.77;;;;;;;11.70;100.00;97601.28;4974384;28;20030;-91
2024/02/08 13:22:14;;;;;;;2.65;0.65;;;;;;;11.69;100.00;97594.53;4974603;28;20023;-91
2024/02/08 13:24:39;;;;;;;6.60;1.10;;;;;;;11.61;100.00;97591.94;4974327;28;20015;-92
2024/02/08 13:27:05;;;;;;;3.38;0.77;;;;;;;11.63;100.00;97595.16;4972832;28;20552;-92
2024/02/08 13:29:30;;;;;;;3.17;1.23;;;;;;;11.65;100.00;97599.19;4971347;28;20544;-93
2024/02/08 13:31:57;;;;;;;7.85;0.90;;;;;;;11.53;100.00;97591.00;4971823;28;20058;-93
2024/02/08 13:34:22;;;;;;;3.05;0.60;;;;;;;11.55;100.00;97583.88;4973339;28;20026;-94
2024/02/08 13:36:48;;;;;;;1.65;0.70;;;;;;;11.63;100.00;97597.75;4971665;28;20033;-93
2024/02/08 13:39:13;;;;;;;5.75;1.35;;;;;;;11.71;100.00;97590.00;4973867;28;20126;-94